createdAt,value
2023-09-23T00:01:34.128Z,100.00
2023-09-23T00:06:36.202Z,100.00
2023-09-23T00:11:38.418Z,100.00
2023-09-23T00:16:40.346Z,100.00
2023-09-23T00:21:42.133Z,100.00
2023-09-23T00:26:44.939Z,100.00
2023-09-23T00:31:46.797Z,100.00
2023-09-23T00:36:48.637Z,100.00
2023-09-23T00:41:50.470Z,100.00
2023-09-23T00:46:52.312Z,100.00
2023-09-23T00:51:54.968Z,100.00
2023-09-23T00:56:59.586Z,100.00
2023-09-23T01:02:02.305Z,100.00
2023-09-23T01:07:04.060Z,100.00
2023-09-23T01:12:09.014Z,100.00
2023-09-23T01:17:11.512Z,100.00
2023-09-23T01:22:13.431Z,100.00
2023-09-23T01:27:19.376Z,100.00
2023-09-23T01:32:36.262Z,100.00
2023-09-23T01:37:39.168Z,100.00
2023-09-23T01:42:40.880Z,100.00
2023-09-23T01:47:43.140Z,100.00
2023-09-23T01:52:46.478Z,100.00
2023-09-23T01:57:51.230Z,100.00
2023-09-23T02:02:57.209Z,100.00
2023-09-23T02:08:00.311Z,100.00
2023-09-23T02:13:02.031Z,100.00
2023-09-23T02:18:05.563Z,100.00
2023-09-23T02:23:07.499Z,100.00
2023-09-23T02:28:10.871Z,100.00
2023-09-23T02:33:13.539Z,100.00
2023-09-23T02:38:15.413Z,100.00
2023-09-23T02:43:21.550Z,100.00
2023-09-23T02:48:23.516Z,100.00
2023-09-23T02:53:25.512Z,100.00
2023-09-23T02:58:27.228Z,100.00
2023-09-23T03:03:29.230Z,100.00
2023-09-23T03:08:31.967Z,100.00
2023-09-23T03:13:35.849Z,100.00
2023-09-23T03:18:43.348Z,100.00
2023-09-23T03:23:46.148Z,100.00
2023-09-23T03:28:48.276Z,100.00
2023-09-23T03:33:50.255Z,100.00
2023-09-23T03:38:52.865Z,100.00
2023-09-23T03:43:54.814Z,100.00
2023-09-23T03:48:56.784Z,100.00
2023-09-23T03:53:59.100Z,100.00
2023-09-23T03:59:02.098Z,100.00
2023-09-23T04:04:08.880Z,98.99
2023-09-23T04:09:14.610Z,92.48
2023-09-23T04:14:16.361Z,90.35
2023-09-23T04:19:18.064Z,88.91
2023-09-23T04:24:19.794Z,88.69
2023-09-23T04:29:21.756Z,90.42
2023-09-23T04:34:25.351Z,89.88
2023-09-23T04:39:27.088Z,87.26
2023-09-23T04:44:28.760Z,85.49
2023-09-23T04:49:30.528Z,84.04
2023-09-23T04:54:32.285Z,82.59
2023-09-23T04:59:34.031Z,84.52
2023-09-23T05:04:35.756Z,84.29
2023-09-23T05:09:38.484Z,85.67
2023-09-23T05:14:43.987Z,86.38
2023-09-23T05:19:49.228Z,84.12
2023-09-23T05:24:57.842Z,82.88
2023-09-23T05:29:59.714Z,82.33
2023-09-23T05:35:02.047Z,83.38
2023-09-23T05:40:24.448Z,82.38
2023-09-23T05:45:26.787Z,80.38
2023-09-23T05:50:28.995Z,80.95
2023-09-23T05:55:32.452Z,80.04
2023-09-23T06:00:34.977Z,78.71
2023-09-23T06:05:36.982Z,77.22
2023-09-23T06:10:40.146Z,76.06
2023-09-23T06:15:41.931Z,74.94
2023-09-23T06:20:43.881Z,73.83
2023-09-23T06:25:53.603Z,72.23
2023-09-23T06:30:55.347Z,72.68
2023-09-23T06:36:01.804Z,70.98
2023-09-23T06:41:06.044Z,70.82
2023-09-23T06:46:08.368Z,68.82
2023-09-23T06:51:10.337Z,69.36
2023-09-23T06:56:12.075Z,70.11
2023-09-23T07:01:14.061Z,68.73
2023-09-23T07:06:15.864Z,70.48
2023-09-23T07:11:18.204Z,71.40
2023-09-23T07:16:20.197Z,69.50
2023-09-23T07:21:21.981Z,69.72
2023-09-23T07:26:23.774Z,68.21
2023-09-23T07:31:25.508Z,68.73
2023-09-23T07:36:27.247Z,67.13
2023-09-23T07:41:29.016Z,66.63
2023-09-23T07:46:31.146Z,65.10
2023-09-23T07:51:32.836Z,65.19
2023-09-23T07:56:34.581Z,62.85
2023-09-23T08:01:36.443Z,64.90
2023-09-23T08:06:39.395Z,62.11
2023-09-23T08:11:41.258Z,63.08
2023-09-23T08:16:43.056Z,63.32
2023-09-23T08:21:46.881Z,62.57
2023-09-23T08:26:49.020Z,62.98
2023-09-23T08:31:52.036Z,61.67
2023-09-23T08:36:53.970Z,63.61
2023-09-23T08:41:58.482Z,62.97
2023-09-23T08:47:00.433Z,58.70
2023-09-23T08:52:04.073Z,60.10
2023-09-23T08:57:07.074Z,60.34
2023-09-23T09:02:08.958Z,59.67
2023-09-23T09:07:10.723Z,60.05
2023-09-23T09:12:12.563Z,59.03
2023-09-23T09:17:16.098Z,58.27
2023-09-23T09:22:20.791Z,60.05
2023-09-23T09:27:23.068Z,58.59
2023-09-23T09:32:32.615Z,57.45
2023-09-23T09:37:36.660Z,58.38
2023-09-23T09:42:41.225Z,57.81
2023-09-23T09:47:46.601Z,57.12
2023-09-23T09:52:48.513Z,57.11
2023-09-23T09:57:51.953Z,57.59
2023-09-23T10:03:14.447Z,55.78
2023-09-23T10:08:26.228Z,52.51
2023-09-23T10:13:32.686Z,52.92
2023-09-23T10:18:37.156Z,54.73
2023-09-23T10:23:42.368Z,52.30
2023-09-23T10:28:46.863Z,53.59
2023-09-23T10:33:48.784Z,52.33
2023-09-23T10:38:51.174Z,52.64
2023-09-23T10:43:55.234Z,51.29
2023-09-23T10:48:57.466Z,50.24
2023-09-23T10:54:00.659Z,51.29
2023-09-23T10:59:05.702Z,51.44
2023-09-23T11:04:07.921Z,51.41
2023-09-23T11:09:09.898Z,52.19
2023-09-23T11:14:15.804Z,50.38
2023-09-23T11:19:18.759Z,53.01
2023-09-23T11:24:20.537Z,52.94
2023-09-23T11:29:22.675Z,52.19
2023-09-23T11:34:24.751Z,53.48
2023-09-23T11:39:26.793Z,53.64
2023-09-23T11:44:30.673Z,52.63
2023-09-23T11:49:32.760Z,52.66
2023-09-23T11:54:35.019Z,53.08
2023-09-23T11:59:37.416Z,51.56
2023-09-23T12:04:39.609Z,51.41
2023-09-23T12:09:41.795Z,50.40
2023-09-23T12:14:46.594Z,51.52
2023-09-23T12:19:48.722Z,53.81
2023-09-23T12:24:51.078Z,52.86
2023-09-23T12:29:52.809Z,52.90
2023-09-23T12:34:54.656Z,52.60
2023-09-23T12:39:59.046Z,50.02
2023-09-23T12:45:02.336Z,50.44
2023-09-23T12:50:08.398Z,50.83
2023-09-23T12:55:10.437Z,51.65
2023-09-23T13:00:12.819Z,50.33
2023-09-23T13:05:18.038Z,47.54
2023-09-23T13:10:20.054Z,46.93
2023-09-23T13:15:22.751Z,48.13
2023-09-23T13:20:24.656Z,47.85
2023-09-23T13:25:26.727Z,47.49
2023-09-23T13:30:29.096Z,46.33
2023-09-23T13:35:30.907Z,46.21
2023-09-23T13:40:34.581Z,46.44
2023-09-23T13:45:37.868Z,46.56
2023-09-23T13:50:40.695Z,44.94
2023-09-23T13:55:42.520Z,45.09
2023-09-23T14:00:44.473Z,45.59
2023-09-23T14:05:46.442Z,47.00
2023-09-23T14:10:48.652Z,46.87
2023-09-23T14:15:50.429Z,46.94
2023-09-23T14:20:52.399Z,47.16
2023-09-23T14:25:54.730Z,47.94
2023-09-23T14:30:57.788Z,48.00
2023-09-23T14:36:01.354Z,48.53
2023-09-23T14:41:03.235Z,48.99
2023-09-23T14:46:05.656Z,48.88
2023-09-23T14:51:07.798Z,50.30
2023-09-23T14:56:09.932Z,50.08
2023-09-23T15:01:11.677Z,47.47
2023-09-23T15:06:13.822Z,46.72
2023-09-23T15:11:17.220Z,47.25
2023-09-23T15:16:19.421Z,48.34
2023-09-23T15:21:22.612Z,48.32
2023-09-23T15:26:25.261Z,48.39
2023-09-23T15:31:27.144Z,49.47
2023-09-23T15:36:28.947Z,49.00
2023-09-23T15:41:31.071Z,49.91
2023-09-23T15:46:33.015Z,48.85
2023-09-23T15:51:35.070Z,49.36
2023-09-23T15:56:40.850Z,50.98
2023-09-23T16:01:42.975Z,51.83
2023-09-23T16:06:44.717Z,53.04
2023-09-23T16:11:46.534Z,51.33
2023-09-23T16:16:49.037Z,52.12
2023-09-23T16:21:52.648Z,54.29
2023-09-23T16:26:54.432Z,54.28
2023-09-23T16:31:56.185Z,54.85
2023-09-23T16:36:58.004Z,52.10
2023-09-23T16:41:59.735Z,54.20
2023-09-23T16:47:01.627Z,54.70
2023-09-23T16:52:04.419Z,55.15
2023-09-23T16:57:06.229Z,56.38
2023-09-23T17:02:09.516Z,56.00
2023-09-23T17:07:14.482Z,55.53
2023-09-23T17:12:16.384Z,57.06
2023-09-23T17:17:19.003Z,56.16
2023-09-23T17:22:20.700Z,56.49
2023-09-23T17:27:22.402Z,57.25
2023-09-23T17:32:24.302Z,57.08
2023-09-23T17:37:26.260Z,57.81
2023-09-23T17:42:28.286Z,58.79
2023-09-23T17:47:30.256Z,58.84
2023-09-23T17:52:32.139Z,59.89
2023-09-23T17:57:34.049Z,60.60
2023-09-23T18:02:35.982Z,61.55
2023-09-23T18:07:39.220Z,61.80
2023-09-23T18:12:41.858Z,61.64
2023-09-23T18:17:43.969Z,64.26
2023-09-23T18:22:46.497Z,63.95
2023-09-23T18:27:48.279Z,63.99
2023-09-23T18:32:50.906Z,64.55
2023-09-23T18:37:53.814Z,65.64
2023-09-23T18:42:56.047Z,65.35
2023-09-23T18:48:12.731Z,66.14
2023-09-23T18:53:19.831Z,67.01
2023-09-23T18:58:21.985Z,67.82
2023-09-23T19:03:24.092Z,67.34
2023-09-23T19:08:26.292Z,67.53
2023-09-23T19:13:31.155Z,68.03
2023-09-23T19:18:32.950Z,68.19
2023-09-23T19:23:34.914Z,68.53
2023-09-23T19:28:37.293Z,69.94
2023-09-23T19:33:40.935Z,68.92
2023-09-23T19:38:42.839Z,68.62
2023-09-23T19:43:44.840Z,67.70
2023-09-23T19:48:47.767Z,67.77
2023-09-23T19:53:49.994Z,67.38
2023-09-23T19:58:52.158Z,67.15
2023-09-23T20:03:54.040Z,67.82
2023-09-23T20:08:55.941Z,68.20
2023-09-23T20:13:57.984Z,68.42
2023-09-23T20:19:00.400Z,69.20
2023-09-23T20:24:04.141Z,70.56
2023-09-23T20:29:06.091Z,70.50
2023-09-23T20:34:08.192Z,69.99
2023-09-23T20:39:10.248Z,70.23
2023-09-23T20:44:12.250Z,71.24
2023-09-23T20:49:15.327Z,71.78
2023-09-23T20:54:16.972Z,73.61
2023-09-23T20:59:18.722Z,74.79
2023-09-23T21:04:20.564Z,75.99
2023-09-23T21:09:22.562Z,75.86
2023-09-23T21:14:26.277Z,75.69
2023-09-23T21:19:29.158Z,76.22
2023-09-23T21:24:30.911Z,77.29
2023-09-23T21:29:32.677Z,77.30
2023-09-23T21:34:34.603Z,77.96
2023-09-23T21:39:36.288Z,79.46
2023-09-23T21:44:38.241Z,79.21
2023-09-23T21:49:39.936Z,79.23
2023-09-23T21:54:41.770Z,79.94
2023-09-23T21:59:44.293Z,79.77
2023-09-23T22:04:47.199Z,78.19
2023-09-23T22:09:49.344Z,77.13
2023-09-23T22:14:51.077Z,75.60
2023-09-23T22:19:54.038Z,76.85
2023-09-23T22:24:56.453Z,78.28
2023-09-23T22:30:01.386Z,80.04
2023-09-23T22:35:04.075Z,79.47
2023-09-23T22:40:10.643Z,76.18
2023-09-23T22:45:23.570Z,76.22
2023-09-23T22:50:30.019Z,77.39
2023-09-23T22:55:33.923Z,77.55
2023-09-23T23:00:37.369Z,77.10
2023-09-23T23:05:39.692Z,78.16
2023-09-23T23:10:42.042Z,79.82
2023-09-23T23:15:44.119Z,81.19
2023-09-23T23:20:48.091Z,82.88
2023-09-23T23:25:50.102Z,84.75
2023-09-23T23:35:58.494Z,82.85
2023-09-23T23:41:02.739Z,83.20
2023-09-23T23:46:05.173Z,85.11
2023-09-23T23:51:10.548Z,86.25
2023-09-23T23:56:14.079Z,87.47
